sensor_id;sensor_type;location;lat;lon;timestamp;P1;durP1;ratioP1;P2;durP2;ratioP2
23376;SDS011;14353;46.070;13.222;2023-04-02T00:04:56;1.10;;;1.00;;
23376;SDS011;14353;46.070;13.222;2023-04-02T00:07:47;1.40;;;1.30;;
23376;SDS011;14353;46.070;13.222;2023-04-02T00:10:27;1.70;;;1.10;;
23376;SDS011;14353;46.070;13.222;2023-04-02T00:15:40;1.17;;;1.00;;
23376;SDS011;14353;46.070;13.222;2023-04-02T00:18:14;1.42;;;1.15;;
23376;SDS011;14353;46.070;13.222;2023-04-02T00:23:53;1.85;;;1.08;;
23376;SDS011;14353;46.070;13.222;2023-04-02T00:26:21;1.77;;;1.13;;
23376;SDS011;14353;46.070;13.222;2023-04-02T00:28:59;1.48;;;1.20;;
23376;SDS011;14353;46.070;13.222;2023-04-02T00:31:26;1.30;;;1.20;;
23376;SDS011;14353;46.070;13.222;2023-04-02T00:33:53;1.45;;;1.20;;
23376;SDS011;14353;46.070;13.222;2023-04-02T00:36:20;1.35;;;1.25;;
23376;SDS011;14353;46.070;13.222;2023-04-02T00:38:48;1.30;;;1.20;;
23376;SDS011;14353;46.070;13.222;2023-04-02T00:41:15;1.95;;;1.40;;
23376;SDS011;14353;46.070;13.222;2023-04-02T00:43:46;1.80;;;1.20;;
23376;SDS011;14353;46.070;13.222;2023-04-02T00:46:15;1.40;;;1.30;;
23376;SDS011;14353;46.070;13.222;2023-04-02T00:51:18;1.48;;;1.30;;
23376;SDS011;14353;46.070;13.222;2023-04-02T00:53:54;1.95;;;1.15;;
23376;SDS011;14353;46.070;13.222;2023-04-02T00:59:19;1.65;;;1.20;;
23376;SDS011;14353;46.070;13.222;2023-04-02T01:01:50;1.75;;;1.20;;
23376;SDS011;14353;46.070;13.222;2023-04-02T01:04:28;1.50;;;1.30;;
23376;SDS011;14353;46.070;13.222;2023-04-02T01:06:58;2.15;;;1.45;;
23376;SDS011;14353;46.070;13.222;2023-04-02T01:09:33;1.50;;;1.38;;
23376;SDS011;14353;46.070;13.222;2023-04-02T01:12:30;1.98;;;1.20;;
23376;SDS011;14353;46.070;13.222;2023-04-02T01:23:29;1.70;;;1.23;;
23376;SDS011;14353;46.070;13.222;2023-04-02T01:26:30;1.65;;;1.50;;
23376;SDS011;14353;46.070;13.222;2023-04-02T01:29:05;1.45;;;1.30;;
23376;SDS011;14353;46.070;13.222;2023-04-02T01:31:36;1.55;;;1.33;;
23376;SDS011;14353;46.070;13.222;2023-04-02T01:34:05;1.83;;;1.42;;
23376;SDS011;14353;46.070;13.222;2023-04-02T01:39:20;1.98;;;1.30;;
23376;SDS011;14353;46.070;13.222;2023-04-02T01:44:50;1.27;;;1.17;;
23376;SDS011;14353;46.070;13.222;2023-04-02T01:47:22;1.42;;;1.23;;
23376;SDS011;14353;46.070;13.222;2023-04-02T01:52:38;1.30;;;1.20;;
23376;SDS011;14353;46.070;13.222;2023-04-02T01:55:10;1.55;;;1.38;;
23376;SDS011;14353;46.070;13.222;2023-04-02T01:57:45;1.42;;;1.20;;
23376;SDS011;14353;46.070;13.222;2023-04-02T02:00:14;1.80;;;1.42;;
23376;SDS011;14353;46.070;13.222;2023-04-02T02:02:41;2.53;;;1.48;;
23376;SDS011;14353;46.070;13.222;2023-04-02T02:05:14;1.75;;;1.40;;
23376;SDS011;14353;46.070;13.222;2023-04-02T02:07:42;1.60;;;1.45;;
23376;SDS011;14353;46.070;13.222;2023-04-02T02:10:32;1.90;;;1.50;;
23376;SDS011;14353;46.070;13.222;2023-04-02T02:12:58;2.80;;;1.35;;
23376;SDS011;14353;46.070;13.222;2023-04-02T02:15:24;1.50;;;1.40;;
23376;SDS011;14353;46.070;13.222;2023-04-02T02:17:55;2.17;;;1.50;;
23376;SDS011;14353;46.070;13.222;2023-04-02T02:20:23;2.00;;;1.45;;
23376;SDS011;14353;46.070;13.222;2023-04-02T02:22:52;1.52;;;1.40;;
23376;SDS011;14353;46.070;13.222;2023-04-02T02:25:19;1.60;;;1.20;;
23376;SDS011;14353;46.070;13.222;2023-04-02T02:41:06;1.95;;;1.60;;
23376;SDS011;14353;46.070;13.222;2023-04-02T02:49:31;2.05;;;1.58;;
23376;SDS011;14353;46.070;13.222;2023-04-02T02:54:31;1.85;;;1.40;;
23376;SDS011;14353;46.070;13.222;2023-04-02T02:57:04;1.98;;;1.60;;
23376;SDS011;14353;46.070;13.222;2023-04-02T02:59:33;1.38;;;1.15;;
23376;SDS011;14353;46.070;13.222;2023-04-02T03:01:59;1.55;;;1.45;;
23376;SDS011;14353;46.070;13.222;2023-04-02T03:04:26;1.80;;;1.50;;
23376;SDS011;14353;46.070;13.222;2023-04-02T03:06:55;1.60;;;1.40;;
23376;SDS011;14353;46.070;13.222;2023-04-02T03:12:22;2.13;;;1.45;;
23376;SDS011;14353;46.070;13.222;2023-04-02T03:15:11;2.05;;;1.27;;
23376;SDS011;14353;46.070;13.222;2023-04-02T03:17:59;2.90;;;1.50;;
23376;SDS011;14353;46.070;13.222;2023-04-02T03:20:37;1.77;;;1.65;;
23376;SDS011;14353;46.070;13.222;2023-04-02T03:23:26;2.05;;;1.55;;
23376;SDS011;14353;46.070;13.222;2023-04-02T03:28:33;1.63;;;1.42;;
23376;SDS011;14353;46.070;13.222;2023-04-02T03:31:05;2.03;;;1.58;;
23376;SDS011;14353;46.070;13.222;2023-04-02T03:36:24;1.92;;;1.60;;
23376;SDS011;14353;46.070;13.222;2023-04-02T03:42:16;1.75;;;1.35;;
23376;SDS011;14353;46.070;13.222;2023-04-02T03:44:59;1.45;;;1.33;;
23376;SDS011;14353;46.070;13.222;2023-04-02T03:47:37;2.20;;;1.65;;
23376;SDS011;14353;46.070;13.222;2023-04-02T03:50:25;1.88;;;1.60;;
23376;SDS011;14353;46.070;13.222;2023-04-02T03:52:52;1.60;;;1.50;;
23376;SDS011;14353;46.070;13.222;2023-04-02T03:55:19;1.83;;;1.40;;
23376;SDS011;14353;46.070;13.222;2023-04-02T04:00:42;1.63;;;1.35;;
23376;SDS011;14353;46.070;13.222;2023-04-02T04:03:24;1.50;;;1.40;;
23376;SDS011;14353;46.070;13.222;2023-04-02T04:05:59;1.60;;;1.50;;
23376;SDS011;14353;46.070;13.222;2023-04-02T04:08:53;1.67;;;1.52;;
23376;SDS011;14353;46.070;13.222;2023-04-02T04:11:25;1.65;;;1.40;;
23376;SDS011;14353;46.070;13.222;2023-04-02T04:16:48;1.77;;;1.50;;
23376;SDS011;14353;46.070;13.222;2023-04-02T04:19:23;1.98;;;1.65;;
23376;SDS011;14353;46.070;13.222;2023-04-02T04:22:07;1.50;;;1.40;;
23376;SDS011;14353;46.070;13.222;2023-04-02T04:24:35;1.85;;;1.65;;
23376;SDS011;14353;46.070;13.222;2023-04-02T04:30:02;2.13;;;1.40;;
23376;SDS011;14353;46.070;13.222;2023-04-02T04:32:34;2.10;;;1.60;;
23376;SDS011;14353;46.070;13.222;2023-04-02T04:35:20;1.58;;;1.48;;
23376;SDS011;14353;46.070;13.222;2023-04-02T04:38:05;1.60;;;1.50;;
23376;SDS011;14353;46.070;13.222;2023-04-02T04:40:44;1.75;;;1.60;;
23376;SDS011;14353;46.070;13.222;2023-04-02T04:43:46;1.60;;;1.50;;
23376;SDS011;14353;46.070;13.222;2023-04-02T04:46:37;1.40;;;1.30;;
23376;SDS011;14353;46.070;13.222;2023-04-02T04:51:36;2.00;;;1.48;;
23376;SDS011;14353;46.070;13.222;2023-04-02T04:54:10;1.75;;;1.58;;
23376;SDS011;14353;46.070;13.222;2023-04-02T04:56:37;1.65;;;1.50;;
23376;SDS011;14353;46.070;13.222;2023-04-02T04:59:10;1.83;;;1.70;;
23376;SDS011;14353;46.070;13.222;2023-04-02T05:02:09;1.60;;;1.50;;
23376;SDS011;14353;46.070;13.222;2023-04-02T05:04:41;1.70;;;1.55;;
23376;SDS011;14353;46.070;13.222;2023-04-02T05:09:44;1.90;;;1.70;;
23376;SDS011;14353;46.070;13.222;2023-04-02T05:12:35;2.20;;;1.60;;
23376;SDS011;14353;46.070;13.222;2023-04-02T05:15:13;2.08;;;1.40;;
23376;SDS011;14353;46.070;13.222;2023-04-02T05:17:49;1.58;;;1.40;;
23376;SDS011;14353;46.070;13.222;2023-04-02T05:20:39;1.60;;;1.48;;
23376;SDS011;14353;46.070;13.222;2023-04-02T05:23:29;2.15;;;1.60;;
23376;SDS011;14353;46.070;13.222;2023-04-02T05:26:11;2.20;;;1.73;;
23376;SDS011;14353;46.070;13.222;2023-04-02T05:31:22;1.65;;;1.55;;
23376;SDS011;14353;46.070;13.222;2023-04-02T05:33:55;1.63;;;1.30;;
23376;SDS011;14353;46.070;13.222;2023-04-02T05:36:22;1.70;;;1.60;;
23376;SDS011;14353;46.070;13.222;2023-04-02T05:38:50;2.35;;;1.50;;
23376;SDS011;14353;46.070;13.222;2023-04-02T05:41:24;1.70;;;1.52;;
23376;SDS011;14353;46.070;13.222;2023-04-02T05:43:58;1.88;;;1.50;;
23376;SDS011;14353;46.070;13.222;2023-04-02T05:52:03;1.65;;;1.55;;
23376;SDS011;14353;46.070;13.222;2023-04-02T05:54:37;1.90;;;1.42;;
23376;SDS011;14353;46.070;13.222;2023-04-02T05:57:14;2.22;;;1.52;;
23376;SDS011;14353;46.070;13.222;2023-04-02T05:59:48;1.58;;;1.48;;
23376;SDS011;14353;46.070;13.222;2023-04-02T06:02:28;2.45;;;1.52;;
23376;SDS011;14353;46.070;13.222;2023-04-02T06:05:21;2.30;;;1.55;;
23376;SDS011;14353;46.070;13.222;2023-04-02T06:07:54;1.80;;;1.42;;
23376;SDS011;14353;46.070;13.222;2023-04-02T06:10:26;1.58;;;1.40;;
23376;SDS011;14353;46.070;13.222;2023-04-02T06:13:02;1.80;;;1.45;;
23376;SDS011;14353;46.070;13.222;2023-04-02T06:15:32;2.00;;;1.80;;
23376;SDS011;14353;46.070;13.222;2023-04-02T06:18:00;1.80;;;1.35;;
23376;SDS011;14353;46.070;13.222;2023-04-02T06:20:31;1.55;;;1.45;;
23376;SDS011;14353;46.070;13.222;2023-04-02T06:22:58;1.63;;;1.52;;
23376;SDS011;14353;46.070;13.222;2023-04-02T06:25:26;1.50;;;1.40;;
23376;SDS011;14353;46.070;13.222;2023-04-02T06:28:16;2.08;;;1.55;;
23376;SDS011;14353;46.070;13.222;2023-04-02T06:30:45;1.50;;;1.40;;
23376;SDS011;14353;46.070;13.222;2023-04-02T06:33:12;1.73;;;1.60;;
23376;SDS011;14353;46.070;13.222;2023-04-02T06:35:40;1.73;;;1.50;;
23376;SDS011;14353;46.070;13.222;2023-04-02T06:38:11;1.60;;;1.50;;
23376;SDS011;14353;46.070;13.222;2023-04-02T06:40:51;1.63;;;1.52;;
23376;SDS011;14353;46.070;13.222;2023-04-02T06:45:58;1.63;;;1.40;;
23376;SDS011;14353;46.070;13.222;2023-04-02T06:48:30;1.50;;;1.40;;
23376;SDS011;14353;46.070;13.222;2023-04-02T06:51:10;1.67;;;1.50;;
23376;SDS011;14353;46.070;13.222;2023-04-02T06:53:44;1.65;;;1.48;;
23376;SDS011;14353;46.070;13.222;2023-04-02T06:56:18;1.40;;;1.30;;
23376;SDS011;14353;46.070;13.222;2023-04-02T06:58:46;1.83;;;1.60;;
23376;SDS011;14353;46.070;13.222;2023-04-02T07:01:22;1.40;;;1.30;;
23376;SDS011;14353;46.070;13.222;2023-04-02T07:03:51;1.60;;;1.50;;
23376;SDS011;14353;46.070;13.222;2023-04-02T07:06:18;1.50;;;1.33;;
23376;SDS011;14353;46.070;13.222;2023-04-02T07:08:45;1.98;;;1.50;;
23376;SDS011;14353;46.070;13.222;2023-04-02T07:11:12;1.52;;;1.42;;
23376;SDS011;14353;46.070;13.222;2023-04-02T07:13:41;1.70;;;1.50;;
23376;SDS011;14353;46.070;13.222;2023-04-02T07:16:12;1.80;;;1.65;;
23376;SDS011;14353;46.070;13.222;2023-04-02T07:18:40;1.60;;;1.50;;
23376;SDS011;14353;46.070;13.222;2023-04-02T07:21:06;2.30;;;1.55;;
23376;SDS011;14353;46.070;13.222;2023-04-02T07:23:32;1.60;;;1.50;;
23376;SDS011;14353;46.070;13.222;2023-04-02T07:25:57;1.77;;;1.30;;
23376;SDS011;14353;46.070;13.222;2023-04-02T07:28:23;1.58;;;1.40;;
23376;SDS011;14353;46.070;13.222;2023-04-02T07:30:50;1.77;;;1.55;;
23376;SDS011;14353;46.070;13.222;2023-04-02T07:33:18;1.67;;;1.40;;
23376;SDS011;14353;46.070;13.222;2023-04-02T07:35:46;1.50;;;1.30;;
23376;SDS011;14353;46.070;13.222;2023-04-02T07:38:12;1.60;;;1.50;;
23376;SDS011;14353;46.070;13.222;2023-04-02T07:40:37;1.40;;;1.30;;
23376;SDS011;14353;46.070;13.222;2023-04-02T07:43:04;1.65;;;1.50;;
23376;SDS011;14353;46.070;13.222;2023-04-02T07:45:30;1.83;;;1.45;;
23376;SDS011;14353;46.070;13.222;2023-04-02T07:47:56;2.47;;;1.75;;
23376;SDS011;14353;46.070;13.222;2023-04-02T07:50:22;1.63;;;1.25;;
23376;SDS011;14353;46.070;13.222;2023-04-02T07:52:48;1.58;;;1.33;;
23376;SDS011;14353;46.070;13.222;2023-04-02T07:55:14;1.50;;;1.40;;
23376;SDS011;14353;46.070;13.222;2023-04-02T07:57:46;1.48;;;1.38;;
23376;SDS011;14353;46.070;13.222;2023-04-02T08:00:16;1.38;;;1.27;;
23376;SDS011;14353;46.070;13.222;2023-04-02T08:02:43;1.60;;;1.48;;
23376;SDS011;14353;46.070;13.222;2023-04-02T08:05:09;3.30;;;1.40;;
23376;SDS011;14353;46.070;13.222;2023-04-02T08:07:35;1.65;;;1.35;;
23376;SDS011;14353;46.070;13.222;2023-04-02T08:10:01;1.42;;;1.33;;
23376;SDS011;14353;46.070;13.222;2023-04-02T08:12:30;1.50;;;1.40;;
23376;SDS011;14353;46.070;13.222;2023-04-02T08:14:56;1.48;;;1.38;;
23376;SDS011;14353;46.070;13.222;2023-04-02T08:17:22;1.52;;;1.42;;
23376;SDS011;14353;46.070;13.222;2023-04-02T08:19:48;1.40;;;1.30;;
23376;SDS011;14353;46.070;13.222;2023-04-02T08:22:13;1.90;;;1.40;;
23376;SDS011;14353;46.070;13.222;2023-04-02T08:24:39;1.70;;;1.35;;
23376;SDS011;14353;46.070;13.222;2023-04-02T08:27:05;1.48;;;1.38;;
23376;SDS011;14353;46.070;13.222;2023-04-02T08:29:31;1.45;;;1.35;;
23376;SDS011;14353;46.070;13.222;2023-04-02T08:31:57;1.52;;;1.42;;
23376;SDS011;14353;46.070;13.222;2023-04-02T08:34:24;1.50;;;1.40;;
23376;SDS011;14353;46.070;13.222;2023-04-02T08:36:49;1.20;;;1.10;;
23376;SDS011;14353;46.070;13.222;2023-04-02T08:39:15;1.42;;;1.23;;
23376;SDS011;14353;46.070;13.222;2023-04-02T08:41:46;1.20;;;1.10;;
23376;SDS011;14353;46.070;13.222;2023-04-02T08:44:34;1.50;;;1.40;;
23376;SDS011;14353;46.070;13.222;2023-04-02T08:47:03;1.50;;;1.40;;
23376;SDS011;14353;46.070;13.222;2023-04-02T08:49:34;1.30;;;1.20;;
23376;SDS011;14353;46.070;13.222;2023-04-02T08:52:09;1.58;;;1.30;;
23376;SDS011;14353;46.070;13.222;2023-04-02T08:54:47;1.83;;;1.50;;
23376;SDS011;14353;46.070;13.222;2023-04-02T08:59:39;1.80;;;1.40;;
23376;SDS011;14353;46.070;13.222;2023-04-02T09:04:59;1.85;;;1.45;;
23376;SDS011;14353;46.070;13.222;2023-04-02T09:07:29;1.30;;;1.20;;
23376;SDS011;14353;46.070;13.222;2023-04-02T09:09:57;1.65;;;1.40;;
23376;SDS011;14353;46.070;13.222;2023-04-02T09:12:29;1.55;;;1.33;;
23376;SDS011;14353;46.070;13.222;2023-04-02T09:15:10;1.30;;;1.20;;
23376;SDS011;14353;46.070;13.222;2023-04-02T09:17:46;1.50;;;1.40;;
23376;SDS011;14353;46.070;13.222;2023-04-02T09:20:17;1.60;;;1.33;;
23376;SDS011;14353;46.070;13.222;2023-04-02T09:22:46;1.30;;;1.20;;
23376;SDS011;14353;46.070;13.222;2023-04-02T09:25:22;1.25;;;1.15;;
23376;SDS011;14353;46.070;13.222;2023-04-02T09:27:54;1.70;;;1.40;;
23376;SDS011;14353;46.070;13.222;2023-04-02T09:33:00;1.73;;;1.40;;
23376;SDS011;14353;46.070;13.222;2023-04-02T09:35:31;1.58;;;1.25;;
23376;SDS011;14353;46.070;13.222;2023-04-02T09:43:31;1.40;;;1.30;;
23376;SDS011;14353;46.070;13.222;2023-04-02T09:51:23;1.55;;;1.40;;
23376;SDS011;14353;46.070;13.222;2023-04-02T09:56:35;1.60;;;1.50;;
23376;SDS011;14353;46.070;13.222;2023-04-02T10:01:29;1.42;;;1.33;;
23376;SDS011;14353;46.070;13.222;2023-04-02T10:03:57;1.45;;;1.35;;
23376;SDS011;14353;46.070;13.222;2023-04-02T10:06:24;1.60;;;1.50;;
23376;SDS011;14353;46.070;13.222;2023-04-02T10:08:53;1.50;;;1.30;;
23376;SDS011;14353;46.070;13.222;2023-04-02T10:13:59;1.33;;;1.20;;
23376;SDS011;14353;46.070;13.222;2023-04-02T10:16:31;1.35;;;1.25;;
23376;SDS011;14353;46.070;13.222;2023-04-02T10:19:05;1.67;;;1.48;;
23376;SDS011;14353;46.070;13.222;2023-04-02T10:21:37;1.58;;;1.40;;
23376;SDS011;14353;46.070;13.222;2023-04-02T10:24:11;1.38;;;1.27;;
23376;SDS011;14353;46.070;13.222;2023-04-02T10:35:51;1.45;;;1.33;;
23376;SDS011;14353;46.070;13.222;2023-04-02T10:41:18;1.40;;;1.30;;
23376;SDS011;14353;46.070;13.222;2023-04-02T10:55:22;1.23;;;1.13;;
23376;SDS011;14353;46.070;13.222;2023-04-02T10:57:52;1.50;;;1.40;;
23376;SDS011;14353;46.070;13.222;2023-04-02T11:00:24;1.30;;;1.20;;
23376;SDS011;14353;46.070;13.222;2023-04-02T11:05:59;1.20;;;1.10;;
23376;SDS011;14353;46.070;13.222;2023-04-02T11:08:40;1.40;;;1.30;;
23376;SDS011;14353;46.070;13.222;2023-04-02T11:11:12;1.38;;;1.27;;
23376;SDS011;14353;46.070;13.222;2023-04-02T11:16:11;1.20;;;1.05;;
23376;SDS011;14353;46.070;13.222;2023-04-02T11:18:39;1.15;;;1.08;;
23376;SDS011;14353;46.070;13.222;2023-04-02T11:21:06;1.50;;;1.25;;
23376;SDS011;14353;46.070;13.222;2023-04-02T11:24:01;1.35;;;1.25;;
23376;SDS011;14353;46.070;13.222;2023-04-02T11:29:03;1.30;;;1.20;;
23376;SDS011;14353;46.070;13.222;2023-04-02T11:31:36;1.67;;;1.05;;
23376;SDS011;14353;46.070;13.222;2023-04-02T11:34:02;1.50;;;1.20;;
23376;SDS011;14353;46.070;13.222;2023-04-02T11:37:10;1.33;;;1.23;;
23376;SDS011;14353;46.070;13.222;2023-04-02T11:44:54;1.45;;;1.35;;
23376;SDS011;14353;46.070;13.222;2023-04-02T11:47:23;1.40;;;1.17;;
23376;SDS011;14353;46.070;13.222;2023-04-02T11:54:54;1.42;;;1.33;;
23376;SDS011;14353;46.070;13.222;2023-04-02T12:06:04;2.00;;;1.35;;
23376;SDS011;14353;46.070;13.222;2023-04-02T12:09:04;1.10;;;1.00;;
23376;SDS011;14353;46.070;13.222;2023-04-02T12:11:34;1.40;;;1.30;;
23376;SDS011;14353;46.070;13.222;2023-04-02T12:14:27;1.35;;;1.10;;
23376;SDS011;14353;46.070;13.222;2023-04-02T12:16:54;1.27;;;1.15;;
23376;SDS011;14353;46.070;13.222;2023-04-02T12:19:21;1.30;;;1.13;;
23376;SDS011;14353;46.070;13.222;2023-04-02T12:21:48;1.35;;;1.10;;
23376;SDS011;14353;46.070;13.222;2023-04-02T12:24:18;1.40;;;1.30;;
23376;SDS011;14353;46.070;13.222;2023-04-02T12:26:45;1.10;;;1.02;;
23376;SDS011;14353;46.070;13.222;2023-04-02T12:29:15;1.20;;;1.10;;
23376;SDS011;14353;46.070;13.222;2023-04-02T12:31:52;1.23;;;1.13;;
23376;SDS011;14353;46.070;13.222;2023-04-02T12:34:20;1.10;;;1.00;;
23376;SDS011;14353;46.070;13.222;2023-04-02T12:37:15;1.30;;;1.20;;
23376;SDS011;14353;46.070;13.222;2023-04-02T12:39:49;1.25;;;1.10;;
23376;SDS011;14353;46.070;13.222;2023-04-02T12:42:27;1.20;;;1.10;;
23376;SDS011;14353;46.070;13.222;2023-04-02T12:44:57;1.27;;;1.17;;
23376;SDS011;14353;46.070;13.222;2023-04-02T12:47:23;1.33;;;1.10;;
23376;SDS011;14353;46.070;13.222;2023-04-02T12:49:49;0.80;;;0.80;;
23376;SDS011;14353;46.070;13.222;2023-04-02T12:52:19;1.30;;;1.20;;
23376;SDS011;14353;46.070;13.222;2023-04-02T12:54:50;1.23;;;1.10;;
23376;SDS011;14353;46.070;13.222;2023-04-02T12:59:50;1.17;;;1.08;;
23376;SDS011;14353;46.070;13.222;2023-04-02T13:02:23;1.25;;;1.10;;
23376;SDS011;14353;46.070;13.222;2023-04-02T13:04:51;1.20;;;1.10;;
23376;SDS011;14353;46.070;13.222;2023-04-02T13:07:19;1.15;;;1.05;;
23376;SDS011;14353;46.070;13.222;2023-04-02T13:09:48;1.27;;;1.17;;
23376;SDS011;14353;46.070;13.222;2023-04-02T13:14:58;1.05;;;0.95;;
23376;SDS011;14353;46.070;13.222;2023-04-02T13:22:51;1.33;;;1.02;;
23376;SDS011;14353;46.070;13.222;2023-04-02T13:25:17;1.10;;;1.00;;
23376;SDS011;14353;46.070;13.222;2023-04-02T13:27:43;1.00;;;1.00;;
23376;SDS011;14353;46.070;13.222;2023-04-02T13:30:11;1.30;;;1.20;;
23376;SDS011;14353;46.070;13.222;2023-04-02T13:32:46;1.20;;;1.10;;
23376;SDS011;14353;46.070;13.222;2023-04-02T13:35:12;1.20;;;1.10;;
23376;SDS011;14353;46.070;13.222;2023-04-02T13:37:38;1.00;;;0.90;;
23376;SDS011;14353;46.070;13.222;2023-04-02T13:40:04;1.30;;;1.20;;
23376;SDS011;14353;46.070;13.222;2023-04-02T13:42:30;1.10;;;1.00;;
23376;SDS011;14353;46.070;13.222;2023-04-02T13:44:56;0.90;;;0.90;;
23376;SDS011;14353;46.070;13.222;2023-04-02T13:47:22;1.17;;;1.08;;
23376;SDS011;14353;46.070;13.222;2023-04-02T13:49:48;1.92;;;1.30;;
23376;SDS011;14353;46.070;13.222;2023-04-02T13:52:14;1.42;;;0.90;;
23376;SDS011;14353;46.070;13.222;2023-04-02T13:54:50;0.80;;;0.80;;
23376;SDS011;14353;46.070;13.222;2023-04-02T13:57:18;1.10;;;1.00;;
23376;SDS011;14353;46.070;13.222;2023-04-02T13:59:44;1.10;;;1.00;;
23376;SDS011;14353;46.070;13.222;2023-04-02T14:02:15;1.20;;;1.10;;
23376;SDS011;14353;46.070;13.222;2023-04-02T14:04:54;0.88;;;0.88;;
23376;SDS011;14353;46.070;13.222;2023-04-02T14:32:42;1.13;;;1.02;;
23376;SDS011;14353;46.070;13.222;2023-04-02T14:35:37;1.05;;;0.98;;
23376;SDS011;14353;46.070;13.222;2023-04-02T14:38:21;1.20;;;1.00;;
23376;SDS011;14353;46.070;13.222;2023-04-02T14:43:57;1.10;;;1.00;;
23376;SDS011;14353;46.070;13.222;2023-04-02T14:46:26;0.98;;;0.98;;
23376;SDS011;14353;46.070;13.222;2023-04-02T14:48:56;0.80;;;0.80;;
23376;SDS011;14353;46.070;13.222;2023-04-02T14:51:47;1.08;;;1.02;;
23376;SDS011;14353;46.070;13.222;2023-04-02T14:54:38;1.50;;;0.90;;
23376;SDS011;14353;46.070;13.222;2023-04-02T15:08:29;1.13;;;1.02;;
23376;SDS011;14353;46.070;13.222;2023-04-02T15:10:57;1.00;;;0.90;;
23376;SDS011;14353;46.070;13.222;2023-04-02T15:13:26;1.08;;;0.98;;
23376;SDS011;14353;46.070;13.222;2023-04-02T15:16:17;0.80;;;0.80;;
23376;SDS011;14353;46.070;13.222;2023-04-02T15:18:43;1.40;;;1.00;;
23376;SDS011;14353;46.070;13.222;2023-04-02T15:40:33;0.88;;;0.88;;
23376;SDS011;14353;46.070;13.222;2023-04-02T15:43:05;1.10;;;1.00;;
23376;SDS011;14353;46.070;13.222;2023-04-02T15:45:59;1.13;;;1.05;;
23376;SDS011;14353;46.070;13.222;2023-04-02T15:59:50;0.88;;;0.88;;
23376;SDS011;14353;46.070;13.222;2023-04-02T16:05:33;1.35;;;1.10;;
23376;SDS011;14353;46.070;13.222;2023-04-02T16:11:09;0.90;;;0.85;;
23376;SDS011;14353;46.070;13.222;2023-04-02T16:13:37;1.00;;;0.90;;
23376;SDS011;14353;46.070;13.222;2023-04-02T16:19:01;1.00;;;0.90;;
23376;SDS011;14353;46.070;13.222;2023-04-02T16:21:28;1.10;;;1.00;;
23376;SDS011;14353;46.070;13.222;2023-04-02T16:23:57;1.20;;;1.10;;
23376;SDS011;14353;46.070;13.222;2023-04-02T16:26:34;1.10;;;1.00;;
23376;SDS011;14353;46.070;13.222;2023-04-02T16:29:18;0.88;;;0.88;;
23376;SDS011;14353;46.070;13.222;2023-04-02T16:34:44;1.00;;;0.77;;
23376;SDS011;14353;46.070;13.222;2023-04-02T16:42:58;1.10;;;0.98;;
23376;SDS011;14353;46.070;13.222;2023-04-02T16:56:28;0.80;;;0.80;;
23376;SDS011;14353;46.070;13.222;2023-04-02T16:59:41;1.73;;;1.00;;
23376;SDS011;14353;46.070;13.222;2023-04-02T17:10:48;0.90;;;0.90;;
23376;SDS011;14353;46.070;13.222;2023-04-02T17:13:28;1.30;;;1.00;;
23376;SDS011;14353;46.070;13.222;2023-04-02T17:16:19;1.10;;;1.00;;
23376;SDS011;14353;46.070;13.222;2023-04-02T17:19:08;0.95;;;0.90;;
23376;SDS011;14353;46.070;13.222;2023-04-02T17:21:39;1.10;;;1.00;;
23376;SDS011;14353;46.070;13.222;2023-04-02T17:26:45;1.27;;;1.00;;
23376;SDS011;14353;46.070;13.222;2023-04-02T17:29:19;1.15;;;1.00;;
23376;SDS011;14353;46.070;13.222;2023-04-02T17:31:49;1.25;;;0.88;;
23376;SDS011;14353;46.070;13.222;2023-04-02T17:34:17;1.13;;;1.02;;
23376;SDS011;14353;46.070;13.222;2023-04-02T17:36:52;0.90;;;0.90;;
23376;SDS011;14353;46.070;13.222;2023-04-02T17:45:21;1.08;;;1.00;;
23376;SDS011;14353;46.070;13.222;2023-04-02T17:48:01;0.90;;;0.90;;
23376;SDS011;14353;46.070;13.222;2023-04-02T17:56:04;1.25;;;1.00;;
23376;SDS011;14353;46.070;13.222;2023-04-02T18:07:09;0.90;;;0.90;;
23376;SDS011;14353;46.070;13.222;2023-04-02T18:09:49;1.38;;;1.10;;
23376;SDS011;14353;46.070;13.222;2023-04-02T18:12:23;1.10;;;1.00;;
23376;SDS011;14353;46.070;13.222;2023-04-02T18:31:10;1.10;;;1.00;;
23376;SDS011;14353;46.070;13.222;2023-04-02T18:36:22;0.80;;;0.80;;
23376;SDS011;14353;46.070;13.222;2023-04-02T18:38:53;1.10;;;1.00;;
23376;SDS011;14353;46.070;13.222;2023-04-02T18:46:49;1.27;;;1.10;;
23376;SDS011;14353;46.070;13.222;2023-04-02T18:52:10;1.05;;;0.85;;
23376;SDS011;14353;46.070;13.222;2023-04-02T18:57:09;1.00;;;0.90;;
23376;SDS011;14353;46.070;13.222;2023-04-02T18:59:41;0.98;;;0.90;;
23376;SDS011;14353;46.070;13.222;2023-04-02T19:02:47;0.98;;;0.93;;
23376;SDS011;14353;46.070;13.222;2023-04-02T19:07:45;1.45;;;1.05;;
23376;SDS011;14353;46.070;13.222;2023-04-02T19:10:26;1.20;;;1.10;;
23376;SDS011;14353;46.070;13.222;2023-04-02T19:13:04;1.10;;;1.10;;
23376;SDS011;14353;46.070;13.222;2023-04-02T19:21:10;0.80;;;0.80;;
23376;SDS011;14353;46.070;13.222;2023-04-02T19:24:07;1.10;;;1.00;;
23376;SDS011;14353;46.070;13.222;2023-04-02T19:26:45;1.17;;;1.00;;
23376;SDS011;14353;46.070;13.222;2023-04-02T19:35:01;1.30;;;1.03;;
23376;SDS011;14353;46.070;13.222;2023-04-02T19:38:14;0.80;;;0.80;;
23376;SDS011;14353;46.070;13.222;2023-04-02T19:43:03;1.35;;;1.10;;
23376;SDS011;14353;46.070;13.222;2023-04-02T19:45:32;0.95;;;0.80;;
23376;SDS011;14353;46.070;13.222;2023-04-02T19:48:09;1.05;;;0.95;;
23376;SDS011;14353;46.070;13.222;2023-04-02T19:50:38;1.25;;;1.10;;
23376;SDS011;14353;46.070;13.222;2023-04-02T19:53:04;1.02;;;0.93;;
23376;SDS011;14353;46.070;13.222;2023-04-02T19:55:29;0.88;;;0.88;;
23376;SDS011;14353;46.070;13.222;2023-04-02T19:57:55;1.10;;;1.00;;
23376;SDS011;14353;46.070;13.222;2023-04-02T20:00:21;1.33;;;1.20;;
23376;SDS011;14353;46.070;13.222;2023-04-02T20:02:46;0.80;;;0.80;;
23376;SDS011;14353;46.070;13.222;2023-04-02T20:05:12;1.13;;;1.02;;
23376;SDS011;14353;46.070;13.222;2023-04-02T20:07:38;1.35;;;1.17;;
23376;SDS011;14353;46.070;13.222;2023-04-02T20:10:04;1.20;;;1.00;;
23376;SDS011;14353;46.070;13.222;2023-04-02T20:12:30;0.80;;;0.80;;
23376;SDS011;14353;46.070;13.222;2023-04-02T20:14:56;1.08;;;0.98;;
23376;SDS011;14353;46.070;13.222;2023-04-02T20:17:22;0.90;;;0.90;;
23376;SDS011;14353;46.070;13.222;2023-04-02T20:19:48;1.20;;;1.05;;
23376;SDS011;14353;46.070;13.222;2023-04-02T20:22:13;1.10;;;1.00;;
23376;SDS011;14353;46.070;13.222;2023-04-02T20:24:39;1.00;;;1.00;;
23376;SDS011;14353;46.070;13.222;2023-04-02T20:27:06;1.13;;;1.00;;
23376;SDS011;14353;46.070;13.222;2023-04-02T20:29:32;0.80;;;0.80;;
23376;SDS011;14353;46.070;13.222;2023-04-02T20:31:58;1.33;;;1.02;;
23376;SDS011;14353;46.070;13.222;2023-04-02T20:34:23;0.90;;;0.90;;
23376;SDS011;14353;46.070;13.222;2023-04-02T20:36:49;1.23;;;1.00;;
23376;SDS011;14353;46.070;13.222;2023-04-02T20:39:15;0.90;;;0.80;;
23376;SDS011;14353;46.070;13.222;2023-04-02T20:41:45;1.13;;;1.02;;
23376;SDS011;14353;46.070;13.222;2023-04-02T20:44:11;0.85;;;0.85;;
23376;SDS011;14353;46.070;13.222;2023-04-02T20:46:37;1.10;;;1.00;;
23376;SDS011;14353;46.070;13.222;2023-04-02T20:49:04;1.20;;;1.10;;
23376;SDS011;14353;46.070;13.222;2023-04-02T20:51:29;1.23;;;1.13;;
23376;SDS011;14353;46.070;13.222;2023-04-02T20:53:56;1.08;;;0.98;;
23376;SDS011;14353;46.070;13.222;2023-04-02T20:56:22;0.88;;;0.88;;
23376;SDS011;14353;46.070;13.222;2023-04-02T20:58:48;1.25;;;1.10;;